Time;durP1;ratioP1;P1;durP2;ratioP2;P2;SDS_P1;SDS_P2;PMS_P1;PMS_P2;Temp;Humidity;BMP_temperature;BMP_pressure;BME280_temperature;BME280_humidity;BME280_pressure;Samples;Min_cycle;Max_cycle;Signal;HPM_P1;HPM_P2
2023/03/19 00:01:56;;;;;;;42.10;22.50;;;;;;;6.38;56.46;100803.80;104613;1271;99920;-76
2023/03/19 00:04:42;;;;;;;38.30;20.80;;;;;;;6.35;56.62;100803.95;104706;1267;99539;-79
2023/03/19 00:07:28;;;;;;;43.70;22.10;;;;;;;6.30;56.89;100802.09;104675;1270;98708;-78
2023/03/19 00:10:13;;;;;;;43.90;22.30;;;;;;;6.25;56.92;100800.25;104598;1267;99577;-76
2023/03/19 00:12:59;;;;;;;44.40;23.60;;;;;;;6.21;57.28;100799.13;104562;1270;101458;-77
2023/03/19 00:15:46;;;;;;;40.50;22.10;;;;;;;6.15;57.45;100795.58;104591;1269;100557;-77
2023/03/19 00:18:31;;;;;;;43.20;22.90;;;;;;;6.11;57.64;100797.80;104815;1267;99275;-76
2023/03/19 00:21:17;;;;;;;38.80;21.70;;;;;;;6.07;57.40;100796.30;104623;1270;97981;-77
2023/03/19 00:24:02;;;;;;;40.50;21.40;;;;;;;6.02;57.74;100794.80;104677;1267;98488;-78
2023/03/19 00:26:48;;;;;;;48.30;23.10;;;;;;;5.98;57.76;100794.33;104745;1267;101401;-78
2023/03/19 00:29:33;;;;;;;43.00;23.50;;;;;;;5.96;57.68;100794.77;104779;1267;99167;-78
2023/03/19 00:32:19;;;;;;;44.60;22.20;;;;;;;5.93;57.67;100795.05;104868;1271;98372;-78
2023/03/19 00:35:05;;;;;;;39.50;21.10;;;;;;;5.90;57.92;100794.84;104803;1270;99250;-77
2023/03/19 00:37:51;;;;;;;42.70;22.80;;;;;;;5.86;58.10;100794.85;104936;1270;97833;-79
2023/03/19 00:40:37;;;;;;;39.80;22.20;;;;;;;5.82;58.33;100791.16;104845;1267;101343;-78
2023/03/19 00:43:22;;;;;;;44.90;23.30;;;;;;;5.77;58.54;100790.02;104761;1270;100392;-76
2023/03/19 00:46:08;;;;;;;40.60;22.90;;;;;;;5.71;58.81;100792.94;104737;1271;98989;-76
2023/03/19 00:48:54;;;;;;;42.40;22.80;;;;;;;5.64;58.90;100790.80;104725;1267;99318;-77
2023/03/19 00:51:42;;;;;;;45.30;23.10;;;;;;;5.58;58.91;100787.23;104750;1269;97963;-76
2023/03/19 00:54:28;;;;;;;40.80;22.40;;;;;;;5.55;59.14;100785.37;104521;1268;101710;-78
2023/03/19 00:57:15;;;;;;;42.20;22.30;;;;;;;5.54;59.12;100788.64;104653;1267;100742;-78
2023/03/19 01:00:03;;;;;;;49.20;25.40;;;;;;;5.55;59.11;100785.31;104559;1267;97978;-78
2023/03/19 01:02:49;;;;;;;42.40;22.90;;;;;;;5.54;58.87;100786.71;104543;1272;98098;-77
2023/03/19 01:05:35;;;;;;;41.10;22.60;;;;;;;5.51;58.90;100783.23;104898;1269;98403;-78
2023/03/19 01:08:20;;;;;;;45.20;23.70;;;;;;;5.49;58.86;100784.47;104579;1267;101348;-78
2023/03/19 01:11:13;;;;;;;41.10;22.50;;;;;;;5.47;59.01;100784.73;104699;1273;99101;-78
2023/03/19 01:13:58;;;;;;;41.30;22.70;;;;;;;5.42;59.12;100785.33;104572;1272;97927;-77
2023/03/19 01:16:44;;;;;;;46.00;23.30;;;;;;;5.39;59.26;100788.98;104715;1267;97912;-76
2023/03/19 01:19:30;;;;;;;40.70;21.70;;;;;;;5.36;59.31;100788.46;104620;1267;98038;-77
2023/03/19 01:22:17;;;;;;;45.90;23.60;;;;;;;5.31;59.31;100789.95;104644;1270;101416;-78
2023/03/19 01:25:09;;;;;;;38.40;20.60;;;;;;;5.29;59.51;100792.31;104492;1267;100320;-79
2023/03/19 01:27:55;;;;;;;43.20;21.60;;;;;;;5.27;59.44;100796.06;104483;1274;99006;-78
2023/03/19 01:30:41;;;;;;;40.00;21.10;;;;;;;5.23;59.62;100795.00;104563;1268;97993;-75
2023/03/19 01:33:32;;;;;;;41.00;22.30;;;;;;;5.20;59.80;100794.27;104603;1271;97894;-77
2023/03/19 01:36:21;;;;;;;41.70;23.50;;;;;;;5.16;59.75;100790.93;104689;1268;101369;-78
2023/03/19 01:39:26;;;;;;;43.20;22.00;;;;;;;5.13;59.96;100789.16;104595;1270;100345;-79
2023/03/19 01:42:13;;;;;;;39.40;21.90;;;;;;;5.09;60.01;100786.69;104492;1271;98484;-78
2023/03/19 01:45:40;;;;;;;46.40;21.80;;;;;;;5.04;60.02;100785.20;104581;1270;98061;-79
2023/03/19 01:48:50;;;;;;;37.40;20.40;;;;;;;4.99;59.99;100782.94;104555;1267;99043;-75
2023/03/19 01:51:41;;;;;;;40.30;21.40;;;;;;;4.96;60.24;100782.67;104629;1267;102230;-78
2023/03/19 01:54:53;;;;;;;36.40;19.50;;;;;;;4.93;60.19;100783.49;104595;1268;100351;-77
2023/03/19 01:58:08;;;;;;;38.50;19.80;;;;;;;4.90;60.11;100783.05;104753;1270;98002;-77
2023/03/19 02:01:13;;;;;;;40.00;20.90;;;;;;;4.88;60.19;100782.37;104775;1267;98071;-76
2023/03/19 02:03:59;;;;;;;43.10;21.30;;;;;;;4.86;60.25;100783.77;104684;1268;98506;-77
2023/03/19 02:06:48;;;;;;;39.40;21.30;;;;;;;4.84;60.19;100784.70;104637;1270;101355;-77
2023/03/19 02:09:35;;;;;;;36.80;21.10;;;;;;;4.82;60.27;100782.25;104947;1270;100350;-77
2023/03/19 02:12:21;;;;;;;42.30;21.20;;;;;;;4.79;60.39;100783.27;104663;1273;99302;-77
2023/03/19 02:15:08;;;;;;;39.40;21.30;;;;;;;4.76;60.46;100784.77;105343;1266;97979;-76
2023/03/19 02:17:54;;;;;;;45.30;23.80;;;;;;;4.75;60.47;100782.38;104490;1267;98453;-77
2023/03/19 02:20:42;;;;;;;41.10;22.60;;;;;;;4.74;60.48;100784.63;104591;1270;102618;-76
2023/03/19 02:23:41;;;;;;;46.50;23.20;;;;;;;4.71;60.50;100786.27;104594;1266;99122;-77
2023/03/19 02:26:32;;;;;;;47.70;22.70;;;;;;;4.67;60.77;100791.23;104593;1271;99250;-78
2023/03/19 02:29:20;;;;;;;42.80;23.00;;;;;;;4.62;60.95;100790.33;104500;1267;97989;-77
2023/03/19 02:32:06;;;;;;;43.80;22.70;;;;;;;4.56;61.04;100793.89;104648;1267;98486;-78
2023/03/19 02:34:54;;;;;;;45.70;22.40;;;;;;;4.52;61.22;100798.18;104543;1267;103060;-76
2023/03/19 02:37:39;;;;;;;40.50;21.70;;;;;;;4.47;61.41;100800.23;104595;1267;99991;-78
2023/03/19 02:40:29;;;;;;;46.00;23.50;;;;;;;4.43;61.58;100802.58;104552;1267;98095;-76
2023/03/19 02:43:15;;;;;;;36.60;20.50;;;;;;;4.39;61.52;100800.45;104577;1271;98047;-77
2023/03/19 02:46:02;;;;;;;45.60;23.20;;;;;;;4.36;61.79;100801.46;104541;1271;97961;-78
2023/03/19 02:48:48;;;;;;;49.00;23.40;;;;;;;4.33;61.92;100801.02;104523;1267;101346;-77
2023/03/19 02:51:33;;;;;;;42.00;22.30;;;;;;;4.31;62.13;100801.87;104647;1270;100362;-77
2023/03/19 02:54:19;;;;;;;42.10;22.40;;;;;;;4.30;62.26;100798.44;104484;1267;98948;-75
2023/03/19 02:57:06;;;;;;;45.70;22.20;;;;;;;4.27;62.48;100798.02;104553;1271;99281;-75
2023/03/19 02:59:52;;;;;;;38.40;21.60;;;;;;;4.24;62.64;100800.05;104568;1267;98561;-76
2023/03/19 03:02:38;;;;;;;44.60;23.30;;;;;;;4.22;62.73;100801.13;104521;1267;102221;-75
2023/03/19 03:05:25;;;;;;;41.00;22.40;;;;;;;4.21;62.66;100801.80;104532;1270;100848;-78
2023/03/19 03:08:11;;;;;;;44.80;22.50;;;;;;;4.19;62.67;100798.64;104561;1267;125828;-76
2023/03/19 03:10:56;;;;;;;43.10;22.60;;;;;;;4.15;62.73;100799.15;104546;1272;98084;-77
2023/03/19 03:13:43;;;;;;;41.60;23.00;;;;;;;4.13;62.82;100796.92;104564;1267;98444;-77
2023/03/19 03:16:29;;;;;;;40.30;21.90;;;;;;;4.10;63.04;100795.55;104516;1270;101380;-76
2023/03/19 03:19:14;;;;;;;44.40;22.00;;;;;;;4.07;62.97;100792.88;104580;1267;99865;-77
2023/03/19 03:22:00;;;;;;;40.60;22.20;;;;;;;4.04;63.37;100788.75;104552;1271;97974;-78
2023/03/19 03:24:46;;;;;;;44.90;23.20;;;;;;;4.00;63.42;100791.23;104586;1271;98015;-78
2023/03/19 03:27:32;;;;;;;43.20;22.80;;;;;;;3.95;63.46;100792.02;104530;1267;98498;-76
2023/03/19 03:30:17;;;;;;;43.80;23.00;;;;;;;3.92;63.61;100794.73;104575;1267;102617;-78
2023/03/19 03:33:02;;;;;;;41.50;23.30;;;;;;;3.89;63.69;100795.34;104584;1271;100361;-78
2023/03/19 03:35:48;;;;;;;53.50;24.80;;;;;;;3.87;63.71;100796.81;104526;1270;98825;-77
2023/03/19 03:38:33;;;;;;;41.00;22.10;;;;;;;3.85;63.76;100797.86;104659;1268;98062;-77
2023/03/19 03:41:20;;;;;;;39.20;22.10;;;;;;;3.83;63.99;100798.59;104718;1267;98497;-78
2023/03/19 03:44:06;;;;;;;41.00;23.00;;;;;;;3.80;64.02;100800.67;104579;1269;101388;-79
2023/03/19 03:46:52;;;;;;;44.40;23.30;;;;;;;3.76;64.21;100800.33;104729;1271;100808;-78
2023/03/19 03:49:39;;;;;;;41.20;24.00;;;;;;;3.73;64.23;100798.42;104510;1271;99461;-78
2023/03/19 03:52:30;;;;;;;44.30;22.10;;;;;;;3.71;64.23;100795.57;104662;1270;97983;-78
2023/03/19 03:55:16;;;;;;;39.20;21.80;;;;;;;3.68;64.12;100793.59;104516;1268;97960;-77
2023/03/19 03:58:02;;;;;;;39.60;20.80;;;;;;;3.66;64.45;100797.36;104643;1270;101441;-77
2023/03/19 04:00:48;;;;;;;40.20;22.40;;;;;;;3.63;64.52;100796.91;104804;1269;100342;-76
2023/03/19 04:03:33;;;;;;;40.10;21.80;;;;;;;3.60;64.58;100794.48;104581;1268;99080;-77
2023/03/19 04:06:21;;;;;;;47.50;23.10;;;;;;;3.58;64.70;100792.05;104452;1268;98569;-77
2023/03/19 04:09:12;;;;;;;41.60;22.50;;;;;;;3.58;64.87;100791.01;104853;1268;98501;-77
2023/03/19 04:11:58;;;;;;;50.40;22.90;;;;;;;3.57;64.87;100785.23;104573;1271;101345;-77
2023/03/19 04:14:43;;;;;;;41.10;22.30;;;;;;;3.56;64.68;100786.91;104460;1268;100555;-78
2023/03/19 04:17:29;;;;;;;38.90;21.30;;;;;;;3.56;64.72;100781.67;104615;1268;99014;-79
2023/03/19 04:20:17;;;;;;;44.20;23.50;;;;;;;3.53;64.71;100777.66;104523;1267;99958;-77
2023/03/19 04:23:02;;;;;;;42.00;22.30;;;;;;;3.51;64.72;100784.02;104655;1271;97996;-79
2023/03/19 04:25:48;;;;;;;46.50;23.80;;;;;;;3.46;64.70;100789.23;104689;1267;101416;-78
2023/03/19 04:28:33;;;;;;;47.30;24.10;;;;;;;3.36;64.68;100785.73;104554;1267;99084;-77
2023/03/19 04:31:19;;;;;;;44.20;24.50;;;;;;;3.29;64.63;100782.35;104410;1274;97900;-78
2023/03/19 04:34:05;;;;;;;43.50;23.60;;;;;;;3.24;65.02;100787.35;104424;1273;98926;-76
2023/03/19 04:36:52;;;;;;;41.30;22.20;;;;;;;3.21;65.30;100789.35;104622;1273;99414;-77
2023/03/19 04:39:38;;;;;;;42.40;23.30;;;;;;;3.19;65.41;100791.20;104650;1268;101421;-77
2023/03/19 04:42:23;;;;;;;41.20;23.30;;;;;;;3.14;65.47;100789.64;104619;1271;99236;-76
2023/03/19 04:45:20;;;;;;;44.60;24.30;;;;;;;3.11;65.65;100788.50;104523;1271;99298;-78
2023/03/19 04:48:06;;;;;;;49.20;23.50;;;;;;;3.08;65.93;100792.42;104596;1270;97966;-76
2023/03/19 04:50:55;;;;;;;43.20;24.10;;;;;;;3.05;66.41;100791.14;104592;1271;97929;-77
2023/03/19 04:53:41;;;;;;;44.60;24.20;;;;;;;3.02;66.50;100792.47;104787;1267;102620;-78
2023/03/19 04:56:26;;;;;;;42.30;23.50;;;;;;;2.99;66.65;100798.24;104560;1271;100378;-78
2023/03/19 04:59:16;;;;;;;47.20;24.70;;;;;;;2.95;66.76;100802.21;104635;1271;99412;-78
2023/03/19 05:02:02;;;;;;;42.00;23.30;;;;;;;2.95;66.82;100805.64;104708;1267;97974;-78
2023/03/19 05:04:48;;;;;;;46.70;24.10;;;;;;;2.94;66.95;100806.55;104723;1271;97787;-78
2023/03/19 05:07:34;;;;;;;45.50;24.30;;;;;;;2.93;67.14;100808.58;104595;1271;101870;-76
2023/03/19 05:10:21;;;;;;;42.80;23.60;;;;;;;2.93;67.32;100807.75;104954;1272;99116;-77
2023/03/19 05:13:07;;;;;;;51.10;23.00;;;;;;;2.92;67.19;100809.75;104721;1271;97974;-76
2023/03/19 05:15:54;;;;;;;47.30;24.70;;;;;;;2.93;67.37;100811.44;104588;1273;97948;-77
2023/03/19 05:18:40;;;;;;;48.30;24.10;;;;;;;2.95;67.37;100807.75;104658;1271;98517;-77
2023/03/19 05:21:25;;;;;;;45.70;23.60;;;;;;;2.97;67.70;100803.80;104724;1268;102786;-77
2023/03/19 05:24:15;;;;;;;45.00;24.40;;;;;;;3.01;67.62;100799.04;104688;1271;99153;-77
2023/03/19 05:27:01;;;;;;;45.40;23.90;;;;;;;3.06;67.79;100793.50;104730;1272;98479;-77
2023/03/19 05:29:56;;;;;;;43.30;24.10;;;;;;;3.12;67.91;100793.46;104590;1267;97983;-76
2023/03/19 05:33:01;;;;;;;45.70;23.20;;;;;;;3.18;67.73;100795.50;104570;1271;98567;-78
2023/03/19 05:35:55;;;;;;;41.70;22.40;;;;;;;3.24;67.84;100791.98;104507;1267;102361;-78
2023/03/19 05:38:58;;;;;;;45.70;23.60;;;;;;;3.31;67.82;100797.14;104591;1267;99795;-77
2023/03/19 05:41:49;;;;;;;45.20;25.30;;;;;;;3.38;67.88;100803.55;104596;1272;98979;-78
2023/03/19 05:44:38;;;;;;;44.00;22.10;;;;;;;3.46;67.94;100810.25;104583;1268;99051;-77
2023/03/19 05:47:36;;;;;;;37.80;22.00;;;;;;;3.56;67.73;100811.50;104658;1268;97932;-77
2023/03/19 05:50:21;;;;;;;42.80;21.00;;;;;;;3.64;67.55;100807.36;104518;1268;102295;-78
2023/03/19 05:53:36;;;;;;;41.40;22.60;;;;;;;3.73;67.51;100805.30;104439;1267;99233;-77
2023/03/19 05:56:45;;;;;;;40.30;22.80;;;;;;;3.83;67.28;100806.02;104433;1266;98194;-77
2023/03/19 05:59:54;;;;;;;43.30;22.80;;;;;;;3.92;67.29;100811.17;104570;1268;97991;-78
2023/03/19 06:02:51;;;;;;;39.40;20.80;;;;;;;4.00;67.25;100811.48;104589;1267;98201;-78
2023/03/19 06:05:43;;;;;;;41.70;20.70;;;;;;;4.08;67.20;100809.92;104556;1271;101350;-77
2023/03/19 06:08:43;;;;;;;37.60;20.60;;;;;;;4.15;67.29;100812.04;104669;1270;99207;-76
2023/03/19 06:11:39;;;;;;;41.20;22.50;;;;;;;4.21;67.19;100813.84;104634;1269;99025;-79
2023/03/19 06:14:49;;;;;;;34.50;19.90;;;;;;;4.27;67.15;100814.29;104511;1268;98006;-78
2023/03/19 06:18:00;;;;;;;39.50;19.50;;;;;;;4.35;67.13;100807.16;104723;1270;97977;-77
2023/03/19 06:20:46;;;;;;;36.20;19.90;;;;;;;4.45;67.09;100804.01;104561;1268;101338;-77
2023/03/19 06:23:34;;;;;;;36.50;19.40;;;;;;;4.53;67.05;100806.55;105150;1268;99998;-78
2023/03/19 06:26:22;;;;;;;37.60;21.10;;;;;;;4.63;67.24;100809.48;104720;1271;98013;-78
2023/03/19 06:29:10;;;;;;;42.10;21.40;;;;;;;4.74;66.84;100813.78;105532;1272;97955;-76
2023/03/19 06:31:57;;;;;;;41.30;19.90;;;;;;;4.84;67.05;100817.58;104710;1267;98492;-77
2023/03/19 06:34:52;;;;;;;39.60;20.90;;;;;;;4.93;67.20;100818.80;104638;1267;102269;-77
2023/03/19 06:37:38;;;;;;;39.60;21.80;;;;;;;5.01;67.28;100819.27;104672;1269;99712;-77
2023/03/19 06:40:23;;;;;;;40.90;20.50;;;;;;;5.10;67.56;100820.56;104499;1271;97967;-77
2023/03/19 06:43:09;;;;;;;34.90;19.60;;;;;;;5.18;67.57;100821.52;104472;1271;98829;-75
2023/03/19 06:45:55;;;;;;;32.20;18.50;;;;;;;5.24;67.57;100826.40;104540;1267;98021;-78
2023/03/19 06:48:41;;;;;;;38.40;19.20;;;;;;;5.30;67.58;100830.60;104510;1271;102573;-77
2023/03/19 06:51:27;;;;;;;40.80;21.40;;;;;;;5.37;67.90;100833.48;104697;1267;99402;-78
2023/03/19 06:54:12;;;;;;;35.40;18.60;;;;;;;5.44;67.53;100835.79;104634;1268;98072;-78
2023/03/19 06:56:58;;;;;;;37.90;19.80;;;;;;;5.52;67.53;100839.70;104471;1271;98015;-77
2023/03/19 06:59:44;;;;;;;35.30;18.90;;;;;;;5.59;67.62;100842.73;104580;1270;99572;-75
2023/03/19 07:02:30;;;;;;;36.50;19.60;;;;;;;5.66;67.46;100836.52;104563;1267;102634;-77
2023/03/19 07:05:20;;;;;;;34.20;18.70;;;;;;;5.73;67.03;100840.63;104596;1267;99767;-78
2023/03/19 07:08:10;;;;;;;35.60;19.20;;;;;;;5.81;66.76;100842.27;104718;1271;98081;-78
2023/03/19 07:11:03;;;;;;;37.40;18.90;;;;;;;5.91;66.56;100839.38;104678;1273;98533;-76
2023/03/19 07:13:48;;;;;;;30.50;17.30;;;;;;;6.02;66.31;100843.02;104744;1267;97926;-77
2023/03/19 07:16:34;;;;;;;30.70;17.70;;;;;;;6.13;66.28;100848.48;104736;1271;102146;-77
2023/03/19 07:19:19;;;;;;;32.00;16.60;;;;;;;6.24;65.80;100850.24;104682;1267;99911;-77
2023/03/19 07:22:05;;;;;;;33.60;17.40;;;;;;;6.35;65.78;100848.73;104582;1271;99514;-77
2023/03/19 07:24:51;;;;;;;32.50;17.50;;;;;;;6.48;66.11;100848.33;104705;1271;98024;-78
2023/03/19 07:27:37;;;;;;;32.70;19.70;;;;;;;6.60;65.74;100845.85;104587;1270;97901;-77
2023/03/19 07:30:23;;;;;;;32.20;17.60;;;;;;;6.73;65.38;100842.36;104569;1271;102330;-77
2023/03/19 07:33:08;;;;;;;29.10;17.00;;;;;;;6.86;65.40;100842.66;104689;1269;100503;-76
2023/03/19 07:35:54;;;;;;;29.50;16.80;;;;;;;6.97;65.14;100839.64;104640;1266;97742;-78
2023/03/19 07:38:39;;;;;;;31.80;16.80;;;;;;;7.08;64.56;100834.67;104817;1270;98062;-77
2023/03/19 07:41:25;;;;;;;30.70;17.80;;;;;;;7.19;64.23;100837.09;104698;1271;97886;-78
2023/03/19 07:44:10;;;;;;;30.90;17.60;;;;;;;7.32;64.53;100843.16;104486;1268;101348;-77
2023/03/19 07:46:55;;;;;;;34.50;18.20;;;;;;;7.45;64.44;100848.54;104638;1268;99234;-79
2023/03/19 07:49:41;;;;;;;32.40;17.90;;;;;;;7.55;64.36;100849.58;104492;1269;98716;-76
2023/03/19 07:52:27;;;;;;;33.50;18.30;;;;;;;7.66;64.08;100850.91;104674;1267;97955;-78
2023/03/19 07:55:14;;;;;;;38.60;19.10;;;;;;;7.76;63.39;100852.10;105019;1270;99160;-83
2023/03/19 07:57:59;;;;;;;32.50;18.80;;;;;;;7.84;63.62;100855.03;105428;1268;101469;-85
2023/03/19 08:00:46;;;;;;;32.50;17.30;;;;;;;7.92;63.01;100858.39;105574;1268;100663;-83
2023/03/19 08:09:38;;;;;;;33.40;17.40;;;;;;;8.20;61.77;100856.80;103677;1267;97900;-89
2023/03/19 08:12:26;;;;;;;33.30;18.30;;;;;;;8.27;61.31;100853.36;105612;1267;102491;-85
2023/03/19 08:15:12;;;;;;;29.00;16.40;;;;;;;8.33;61.13;100849.35;105300;1267;101486;-85
2023/03/19 08:18:00;;;;;;;32.20;17.60;;;;;;;8.40;60.96;100847.17;105391;1267;98484;-84
2023/03/19 08:20:45;;;;;;;30.70;16.20;;;;;;;8.47;60.74;100844.61;105469;1269;97985;-83
2023/03/19 08:23:34;;;;;;;34.20;18.40;;;;;;;8.53;60.77;100845.34;105748;1271;98378;-88
2023/03/19 08:26:21;;;;;;;34.40;17.80;;;;;;;8.60;60.72;100847.80;105638;1266;102698;-90
2023/03/19 08:29:08;;;;;;;33.00;18.50;;;;;;;8.67;61.01;100843.82;105502;1267;101532;-86
2023/03/19 08:31:55;;;;;;;32.30;18.80;;;;;;;8.74;61.01;100839.64;105911;1274;97951;-88
2023/03/19 08:34:40;;;;;;;31.60;18.60;;;;;;;8.81;60.89;100837.73;105829;1267;97976;-87
2023/03/19 08:37:26;;;;;;;36.60;18.30;;;;;;;8.87;60.89;100839.42;105807;1267;98000;-86
2023/03/19 08:40:12;;;;;;;33.30;19.20;;;;;;;8.94;61.02;100839.41;105437;1273;102427;-85
2023/03/19 08:42:58;;;;;;;30.90;18.10;;;;;;;8.99;60.92;100843.54;105431;1273;99079;-85
2023/03/19 08:45:44;;;;;;;31.50;18.50;;;;;;;9.06;60.92;100844.59;105277;1273;97990;-84
2023/03/19 08:48:29;;;;;;;34.70;18.10;;;;;;;9.13;61.13;100844.27;105375;1267;97889;-85
2023/03/19 08:51:15;;;;;;;30.80;17.90;;;;;;;9.20;60.54;100838.20;105507;1267;98068;-83
2023/03/19 08:54:01;;;;;;;33.70;18.20;;;;;;;9.27;60.25;100843.02;105738;1267;101463;-82
2023/03/19 08:56:41;;;;;;;;;;;;;;;9.35;60.18;100845.16;105745;1268;98834;-83
2023/03/19 08:59:32;;;;;;;29.30;17.80;;;;;;;9.42;59.98;100845.15;105761;1269;100062;-90
2023/03/19 09:02:28;;;;;;;36.40;20.10;;;;;;;9.53;59.55;100847.14;105589;1265;98062;-88
2023/03/19 09:05:14;;;;;;;30.10;18.60;;;;;;;9.61;59.69;100848.44;106041;1267;99240;-90
2023/03/19 09:08:00;;;;;;;32.70;19.30;;;;;;;9.68;59.60;100849.48;105368;1271;103809;-85
2023/03/19 09:10:46;;;;;;;30.00;18.00;;;;;;;9.74;59.55;100847.16;105051;1272;100337;-78
2023/03/19 09:13:32;;;;;;;28.50;18.10;;;;;;;9.81;59.05;100845.13;104644;1277;99301;-77
2023/03/19 09:16:18;;;;;;;28.80;17.20;;;;;;;9.88;58.83;100842.67;104577;1268;99305;-77
2023/03/19 09:19:04;;;;;;;31.90;18.90;;;;;;;9.92;58.44;100840.57;104785;1269;99666;-79
2023/03/19 09:21:49;;;;;;;26.60;17.70;;;;;;;9.94;58.55;100838.48;105000;1269;101351;-85
2023/03/19 09:24:35;;;;;;;32.70;17.80;;;;;;;9.99;57.90;100836.39;104704;1277;100052;-78
2023/03/19 09:27:20;;;;;;;30.60;18.30;;;;;;;10.03;58.25;100838.69;104916;1269;98510;-80
2023/03/19 09:30:08;;;;;;;31.70;17.80;;;;;;;10.08;58.07;100836.56;105018;1272;97946;-78
2023/03/19 09:32:54;;;;;;;32.20;18.30;;;;;;;10.12;58.09;100833.04;106106;1271;98378;-78
2023/03/19 09:35:39;;;;;;;36.40;20.30;;;;;;;10.19;58.29;100833.66;104935;1269;101329;-80
2023/03/19 09:38:25;;;;;;;31.00;18.50;;;;;;;10.27;57.82;100828.29;105051;1271;100505;-82
2023/03/19 09:41:48;;;;;;;30.50;18.60;;;;;;;10.35;57.94;100823.94;105601;1269;99493;-79
2023/03/19 09:44:39;;;;;;;35.90;19.70;;;;;;;10.43;57.75;100822.64;105632;1272;97905;-80
2023/03/19 09:47:38;;;;;;;31.20;19.60;;;;;;;10.50;57.88;100820.40;104996;1270;97953;-81
2023/03/19 09:50:27;;;;;;;32.90;18.80;;;;;;;10.56;57.65;100823.35;105317;1271;101382;-77
2023/03/19 09:53:55;;;;;;;31.60;19.00;;;;;;;10.63;57.57;100826.30;104893;1272;100335;-80
2023/03/19 09:56:40;;;;;;;32.00;18.70;;;;;;;10.68;57.19;100825.65;104943;1269;99021;-80
2023/03/19 09:59:28;;;;;;;31.50;19.80;;;;;;;10.73;56.94;100826.02;105043;1271;97986;-78
2023/03/19 10:02:35;;;;;;;30.50;19.60;;;;;;;10.76;56.62;100828.33;104827;1271;98509;-79
2023/03/19 10:05:35;;;;;;;37.10;20.10;;;;;;;10.78;56.72;100828.75;107885;1267;101378;-80
2023/03/19 10:08:38;;;;;;;29.60;19.50;;;;;;;10.82;56.62;100831.61;105993;1267;99175;-79
2023/03/19 10:12:04;;;;;;;33.10;20.60;;;;;;;10.88;56.67;100829.46;105074;1267;97987;-80
2023/03/19 10:15:09;;;;;;;32.60;19.40;;;;;;;10.94;56.65;100828.11;105262;1267;97970;-79
2023/03/19 10:18:10;;;;;;;34.20;18.80;;;;;;;10.98;56.62;100829.06;104917;1279;97999;-79
2023/03/19 10:38:16;;;;;;;31.10;19.30;;;;;;;11.51;56.65;100829.33;104457;1282;640946;-81
2023/03/19 10:41:26;;;;;;;35.60;21.10;;;;;;;11.77;55.27;100823.77;105869;1269;95841;-80
2023/03/19 10:44:24;;;;;;;34.00;20.40;;;;;;;11.78;55.26;100821.73;105743;1266;95903;-78
2023/03/19 10:47:15;;;;;;;30.60;18.30;;;;;;;11.81;55.54;100818.69;105612;1264;98501;-86
2023/03/19 10:50:02;;;;;;;;;;;;;;;11.86;55.75;100817.88;106451;1260;109405;-85
2023/03/19 10:53:01;;;;;;;35.90;18.80;;;;;;;11.89;55.28;100808.95;106312;1254;97722;-87
2023/03/19 10:55:52;;;;;;;29.80;18.10;;;;;;;11.97;55.32;100812.77;106502;1260;95948;-81
2023/03/19 10:58:39;;;;;;;29.60;19.10;;;;;;;12.05;55.02;100811.17;106605;1256;95770;-81
2023/03/19 11:01:33;;;;;;;37.80;22.40;;;;;;;12.11;54.82;100811.83;106573;1257;97836;-81
2023/03/19 11:04:21;;;;;;;30.00;19.70;;;;;;;12.15;54.52;100812.88;106914;1251;100361;-79
2023/03/19 11:07:13;;;;;;;33.60;21.00;;;;;;;12.22;54.43;100811.69;106897;1251;97711;-79
2023/03/19 11:09:58;;;;;;;47.40;27.80;;;;;;;12.29;53.98;100806.35;106834;1251;95854;-80
2023/03/19 11:12:54;;;;;;;32.10;19.50;;;;;;;12.36;53.78;100800.41;106365;1257;95976;-79
2023/03/19 11:15:40;;;;;;;34.20;19.60;;;;;;;12.44;53.93;100799.54;106616;1251;99877;-80
2023/03/19 11:18:35;;;;;;;33.90;20.60;;;;;;;12.51;53.47;100798.48;106368;1256;99663;-80
2023/03/19 11:21:27;;;;;;;50.00;30.30;;;;;;;12.58;53.75;100790.80;106736;1256;99051;-79
2023/03/19 11:24:13;;;;;;;28.40;17.70;;;;;;;12.65;53.41;100786.36;106239;1256;96810;-79
2023/03/19 11:26:59;;;;;;;29.10;17.60;;;;;;;12.69;53.33;100785.55;106402;1251;96721;-79
2023/03/19 11:29:45;;;;;;;26.60;16.60;;;;;;;12.73;52.54;100783.10;106437;1254;98613;-79
2023/03/19 11:32:49;;;;;;;31.90;17.40;;;;;;;12.77;52.87;100776.27;106375;1250;100466;-79
2023/03/19 11:35:41;;;;;;;27.00;16.30;;;;;;;12.84;52.69;100771.23;106435;1254;98459;-81
2023/03/19 11:38:42;;;;;;;27.30;16.60;;;;;;;12.89;51.97;100768.58;106852;1251;95857;-80
2023/03/19 11:41:46;;;;;;;28.50;16.40;;;;;;;12.92;51.67;100768.84;107041;1251;95860;-80
2023/03/19 11:44:37;;;;;;;25.70;16.80;;;;;;;12.94;51.29;100763.67;106579;1251;99909;-79
2023/03/19 11:47:31;;;;;;;;;;;;;;;12.94;50.90;100762.19;106527;1254;107661;-79
2023/03/19 11:50:54;;;;;;;22.50;14.00;;;;;;;12.94;50.93;100758.50;106455;1256;99330;-80
2023/03/19 11:53:59;;;;;;;32.70;18.00;;;;;;;13.00;51.45;100762.18;106301;1254;95888;-80
2023/03/19 11:56:58;;;;;;;27.80;16.80;;;;;;;13.06;51.23;100767.08;106414;1254;95632;-80
2023/03/19 12:00:08;;;;;;;26.40;16.60;;;;;;;13.13;51.02;100765.39;106398;1251;98730;-80
2023/03/19 12:03:20;;;;;;;32.10;17.10;;;;;;;13.15;50.32;100761.48;106986;1254;99059;-81
2023/03/19 12:06:18;;;;;;;26.90;15.90;;;;;;;13.16;50.24;100752.20;106845;1257;97805;-79
2023/03/19 12:09:37;;;;;;;31.40;17.70;;;;;;;13.17;49.85;100746.45;106795;1254;95808;-80
2023/03/19 12:12:52;;;;;;;32.40;18.10;;;;;;;13.22;49.97;100750.87;106866;1254;95864;-81
2023/03/19 12:16:04;;;;;;;27.30;15.70;;;;;;;13.29;50.48;100754.33;106883;1251;99299;-81
2023/03/19 12:19:10;;;;;;;;;;;;;;;13.35;50.52;100753.98;106861;1250;99066;-81
2023/03/19 12:22:04;;;;;;;27.10;17.20;;;;;;;13.36;49.88;100757.88;106891;1257;99461;-81
2023/03/19 12:25:21;;;;;;;28.10;16.20;;;;;;;13.37;50.35;100748.94;106850;1254;95915;-79
2023/03/19 12:28:29;;;;;;;23.50;15.60;;;;;;;13.36;49.35;100744.13;106659;1256;95890;-80
2023/03/19 12:31:36;;;;;;;27.70;16.90;;;;;;;13.37;49.63;100738.71;106301;1257;99931;-79
2023/03/19 12:34:29;;;;;;;28.80;17.60;;;;;;;13.40;49.66;100733.60;106056;1255;99268;-79
2023/03/19 12:37:21;;;;;;;27.70;16.40;;;;;;;13.44;49.34;100728.23;106003;1257;98280;-79
2023/03/19 12:40:35;;;;;;;28.50;17.30;;;;;;;13.48;49.18;100725.42;106083;1257;97027;-79
2023/03/19 12:43:28;;;;;;;27.90;17.10;;;;;;;13.53;49.29;100723.58;106208;1254;95856;-80
2023/03/19 12:46:24;;;;;;;25.60;16.70;;;;;;;13.61;49.45;100717.89;106391;1250;98637;-80
2023/03/19 12:49:29;;;;;;;27.30;17.00;;;;;;;13.69;49.23;100717.70;106499;1251;100323;-80
2023/03/19 12:52:34;;;;;;;24.50;15.60;;;;;;;13.76;48.86;100717.63;106242;1257;98446;-79
2023/03/19 12:55:36;;;;;;;24.90;15.20;;;;;;;13.83;49.24;100718.32;106118;1257;95953;-79
2023/03/19 12:58:52;;;;;;;23.90;15.80;;;;;;;13.89;48.68;100713.55;106324;1257;95856;-79
2023/03/19 13:01:45;;;;;;;34.50;20.70;;;;;;;13.94;49.02;100709.95;106297;1251;99298;-80
2023/03/19 13:04:37;;;;;;;27.70;17.70;;;;;;;14.02;48.74;100711.16;106431;1257;99084;-80
2023/03/19 13:07:33;;;;;;;23.30;16.40;;;;;;;14.04;48.16;100711.29;106950;1251;98698;-79
2023/03/19 13:10:21;;;;;;;26.30;15.90;;;;;;;14.09;48.15;100707.31;106870;1251;95854;-79
2023/03/19 13:14:01;;;;;;;24.10;14.70;;;;;;;14.16;48.45;100705.41;106251;1254;95863;-79
2023/03/19 13:17:30;;;;;;;26.70;16.20;;;;;;;14.19;48.49;100708.77;105792;1257;98622;-79
2023/03/19 13:20:46;;;;;;;28.30;16.80;;;;;;;14.20;48.19;100705.00;106345;1269;100201;-85